Time;durP1;ratioP1;P1;durP2;ratioP2;P2;SDS_P1;SDS_P2;PMS_P1;PMS_P2;Temp;Humidity;BMP_temperature;BMP_pressure;BME280_temperature;BME280_humidity;BME280_pressure;Samples;Min_cycle;Max_cycle;Signal;HPM_P1;HPM_P2
2021/11/12 00:12:29;;;;;;;1999.90;999.90;;;;;;;3.12;62.25;101935.75;4952488;28;97781;-74
2021/11/12 00:15:00;;;;;;;1999.90;999.90;;;;;;;3.12;62.34;101931.44;4973113;28;98337;-73
2021/11/12 00:17:31;;;;;;;1999.90;999.90;;;;;;;3.13;62.07;101924.47;4973324;28;96831;-71
2021/11/12 00:20:00;;;;;;;1999.90;999.90;;;;;;;3.14;62.31;101923.63;4972079;28;98020;-73
2021/11/12 00:22:28;;;;;;;1999.90;999.90;;;;;;;3.12;62.37;101917.34;4972685;28;98219;-73
2021/11/12 00:24:58;;;;;;;1999.90;999.90;;;;;;;3.12;62.37;101915.66;4972072;28;98866;-72
2021/11/12 00:27:27;;;;;;;1999.90;999.90;;;;;;;3.11;62.45;101908.53;4972593;28;96805;-73
2021/11/12 00:30:02;;;;;;;1999.90;999.90;;;;;;;3.12;62.56;101914.72;4973183;28;97621;-72
2021/11/12 00:32:41;;;;;;;1999.90;999.90;;;;;;;3.12;62.48;101909.47;4953801;28;98961;-73
2021/11/12 00:35:20;;;;;;;1999.90;999.90;;;;;;;3.13;62.55;101913.94;4972733;28;97851;-72
2021/11/12 00:40:33;;;;;;;1999.90;999.90;;;;;;;3.12;62.05;101909.47;4972704;28;97035;-71
2021/11/12 00:43:11;;;;;;;1999.90;999.90;;;;;;;3.13;62.28;101912.19;4955090;28;98843;-72
2021/11/12 00:45:48;;;;;;;1999.90;999.90;;;;;;;3.14;62.64;101902.59;4954919;28;97919;-72
2021/11/12 00:48:20;;;;;;;1999.90;999.90;;;;;;;3.12;62.27;101899.88;4956236;28;97097;-71
2021/11/12 00:56:26;;;;;;;1999.90;999.90;;;;;;;3.14;62.19;101907.84;4959018;28;98016;-72
2021/11/12 00:58:57;;;;;;;1999.90;999.90;;;;;;;3.14;62.48;101900.88;4956063;28;97166;-71
2021/11/12 01:01:27;;;;;;;1999.90;999.90;;;;;;;3.14;62.45;101906.16;4952257;28;97734;-71
2021/11/12 01:03:57;;;;;;;1999.90;999.90;;;;;;;3.14;62.09;101900.88;4967540;28;98700;-71
2021/11/12 01:06:25;;;;;;;1999.90;999.90;;;;;;;3.15;62.21;101899.16;4949055;28;99787;-71
2021/11/12 01:08:53;;;;;;;1999.90;999.90;;;;;;;3.15;62.24;101912.28;4951704;28;97240;-72
2021/11/12 01:11:26;;;;;;;1999.90;999.90;;;;;;;3.15;61.94;101910.59;4969459;28;97561;-72
2021/11/12 01:13:55;;;;;;;1999.90;999.90;;;;;;;3.16;62.23;101912.44;4953002;28;97964;-71
2021/11/12 01:16:23;;;;;;;1999.90;999.90;;;;;;;3.15;62.20;101910.59;4949770;28;97752;-70
2021/11/12 01:18:51;;;;;;;1999.90;999.90;;;;;;;3.16;62.57;101911.50;4968876;28;96940;-71
2021/11/12 01:21:20;;;;;;;1999.90;999.90;;;;;;;3.17;62.42;101903.72;4934534;28;97860;-70
2021/11/12 01:23:50;;;;;;;1999.90;999.90;;;;;;;3.17;62.15;101898.47;4970852;28;96755;-72
2021/11/12 01:26:20;;;;;;;1999.90;999.90;;;;;;;3.17;62.59;101898.47;4970180;28;98068;-71
2021/11/12 01:28:48;;;;;;;1999.90;999.90;;;;;;;3.18;62.47;101902.00;4971239;28;97653;-71
2021/11/12 01:31:16;;;;;;;1999.90;999.90;;;;;;;3.18;62.26;101895.00;4934492;28;98901;-71
2021/11/12 01:33:44;;;;;;;1999.90;999.90;;;;;;;3.18;62.30;101899.38;4936341;28;99179;-72
2021/11/12 01:36:24;;;;;;;1999.90;999.90;;;;;;;3.17;62.42;101893.19;4970828;28;97453;-71
2021/11/12 01:38:57;;;;;;;1999.90;999.90;;;;;;;3.18;62.62;101896.75;4972655;28;97176;-73
2021/11/12 01:41:25;;;;;;;1999.90;999.90;;;;;;;3.19;62.27;101895.94;4954845;28;97933;-72
2021/11/12 01:43:57;;;;;;;1999.90;999.90;;;;;;;3.19;62.92;101895.94;4954404;28;99538;-71
2021/11/12 01:46:30;;;;;;;1999.90;999.90;;;;;;;3.20;62.41;101897.78;4972416;28;97622;-72
2021/11/12 01:49:14;;;;;;;1999.90;999.90;;;;;;;3.20;62.31;101888.13;4955302;28;96984;-72
2021/11/12 01:51:47;;;;;;;1999.90;999.90;;;;;;;3.20;62.24;101889.88;4956161;28;97952;-72
2021/11/12 01:54:26;;;;;;;1999.90;999.90;;;;;;;3.19;62.23;101883.69;4970235;28;98854;-72
2021/11/12 01:57:20;;;;;;;1999.90;999.90;;;;;;;3.20;62.55;101877.63;4954150;28;98123;-72
2021/11/12 01:59:48;;;;;;;1999.90;999.90;;;;;;;3.19;62.24;101874.88;4970074;28;97099;-72
2021/11/12 02:02:16;;;;;;;1999.90;999.90;;;;;;;3.19;62.76;101873.19;4954194;28;96841;-72
2021/11/12 02:04:44;;;;;;;1999.90;999.90;;;;;;;3.21;62.52;101873.28;4951439;28;98190;-72
2021/11/12 02:07:12;;;;;;;1999.90;999.90;;;;;;;3.19;62.57;101873.19;4953389;28;99348;-72
2021/11/12 02:09:41;;;;;;;1999.90;999.90;;;;;;;3.20;62.45;101867.09;4966126;28;98528;-72
2021/11/12 02:12:18;;;;;;;1999.90;999.90;;;;;;;3.20;62.69;101871.47;4971716;28;98387;-71
2021/11/12 02:14:47;;;;;;;1999.90;999.90;;;;;;;3.21;62.53;101865.38;4969778;28;97907;-72
2021/11/12 02:17:18;;;;;;;1999.90;999.90;;;;;;;3.21;62.72;101862.75;4954322;28;97873;-71
2021/11/12 02:19:50;;;;;;;1999.90;999.90;;;;;;;3.20;62.36;101860.94;4941092;28;97135;-72
2021/11/12 02:22:21;;;;;;;1999.90;999.90;;;;;;;3.21;62.15;101870.66;4953676;28;96786;-71
2021/11/12 02:24:52;;;;;;;1999.90;999.90;;;;;;;3.21;62.63;101868.00;4970941;28;97754;-71
2021/11/12 02:27:23;;;;;;;1999.90;999.90;;;;;;;3.20;62.80;101856.56;4967002;28;98595;-70
2021/11/12 02:29:54;;;;;;;1999.90;999.90;;;;;;;3.19;62.45;101861.75;4970716;28;96854;-72
2021/11/12 02:32:23;;;;;;;1999.90;999.90;;;;;;;3.20;62.95;101855.69;4967899;28;97631;-72
2021/11/12 02:34:54;;;;;;;1999.90;999.90;;;;;;;3.20;62.19;101871.47;4953140;28;98190;-72
2021/11/12 02:37:25;;;;;;;1999.90;999.90;;;;;;;3.21;62.77;101875.91;4969364;28;98432;-72
2021/11/12 02:39:54;;;;;;;1999.90;999.90;;;;;;;3.22;62.63;101869.84;4953868;28;96924;-72
2021/11/12 02:42:23;;;;;;;1999.90;999.90;;;;;;;3.23;62.74;101866.41;4967854;28;96678;-72
2021/11/12 02:44:51;;;;;;;1999.90;999.90;;;;;;;3.23;62.37;101861.13;4968337;28;97724;-71
2021/11/12 02:47:20;;;;;;;1999.90;999.90;;;;;;;3.23;62.48;101871.66;4971724;28;97778;-73
2021/11/12 02:49:48;;;;;;;1999.90;999.90;;;;;;;3.22;62.45;101869.84;4971289;28;97331;-72
2021/11/12 02:52:18;;;;;;;1999.90;999.90;;;;;;;3.21;62.52;101866.31;4966177;28;97729;-72
2021/11/12 02:54:49;;;;;;;1999.90;999.90;;;;;;;3.20;62.91;101866.22;4971459;28;97826;-72
2021/11/12 02:57:18;;;;;;;1999.90;999.90;;;;;;;3.20;62.57;101863.59;4947876;28;99405;-72
2021/11/12 02:59:47;;;;;;;1999.90;999.90;;;;;;;3.18;62.91;101868.69;4970197;28;96836;-72
2021/11/12 03:02:15;;;;;;;1999.90;999.90;;;;;;;3.19;62.82;101867.00;4946411;28;97852;-72
2021/11/12 03:04:43;;;;;;;1999.90;999.90;;;;;;;3.20;62.47;101871.47;4936565;28;99866;-70
2021/11/12 03:07:11;;;;;;;1999.90;999.90;;;;;;;3.19;62.66;101853.84;4951339;28;100847;-71
2021/11/12 03:09:39;;;;;;;1999.90;999.90;;;;;;;3.21;62.37;101857.50;4939201;28;97036;-72
2021/11/12 03:12:12;;;;;;;1999.90;999.90;;;;;;;3.20;62.58;101856.56;4955272;28;97121;-71
2021/11/12 03:14:40;;;;;;;1999.90;999.90;;;;;;;3.20;62.75;101855.69;4956998;28;98020;-71
2021/11/12 03:17:09;;;;;;;1999.90;999.90;;;;;;;3.22;62.69;101854.97;4956792;28;98920;-71
2021/11/12 03:19:37;;;;;;;1999.90;999.90;;;;;;;3.22;62.54;101851.44;4973911;28;97603;-72
2021/11/12 03:22:08;;;;;;;1999.90;999.90;;;;;;;3.19;62.54;101853.84;4974791;28;97575;-70
2021/11/12 03:24:39;;;;;;;1999.90;999.90;;;;;;;3.17;63.17;101855.47;4975702;28;97817;-71
2021/11/12 03:27:16;;;;;;;1999.90;999.90;;;;;;;3.18;62.66;101847.66;4972078;28;97007;-72
2021/11/12 04:00:29;;;;;;;1999.90;999.90;;;;;;;3.13;62.72;101841.19;4947162;28;98161;-70
2021/11/12 04:03:09;;;;;;;1999.90;999.90;;;;;;;3.12;62.69;101831.50;4956339;28;97279;-71
2021/11/12 04:06:00;;;;;;;1999.90;999.90;;;;;;;3.10;62.44;101827.84;4951385;28;99095;-72
2021/11/12 04:20:04;;;;;;;1999.90;999.90;;;;;;;3.05;62.55;101829.25;4970261;28;98116;-72
2021/11/12 04:39:48;;;;;;;1999.90;999.90;;;;;;;3.03;62.38;101824.69;4952811;28;97825;-72
2021/11/12 05:10:17;;;;;;;1999.90;999.90;;;;;;;3.00;62.89;101803.47;4960217;28;98296;-72
2021/11/12 05:35:13;;;;;;;1999.90;999.90;;;;;;;2.97;62.96;101809.41;4940448;28;96831;-72
2021/11/12 05:43:40;;;;;;;1999.90;999.90;;;;;;;2.98;62.79;101799.81;4929303;28;97861;-72
2021/11/12 05:46:18;;;;;;;1999.90;999.90;;;;;;;2.97;62.57;101805.88;4950756;28;97988;-72
2021/11/12 05:51:40;;;;;;;1999.90;999.90;;;;;;;2.88;63.07;101805.25;4944374;28;97606;-71
2021/11/12 05:56:56;;;;;;;1999.90;999.90;;;;;;;2.85;62.94;101805.97;4966911;28;97963;-71
2021/11/12 05:59:26;;;;;;;1999.90;999.90;;;;;;;2.86;62.90;101793.72;4966506;28;97749;-71
2021/11/12 06:01:55;;;;;;;1999.90;999.90;;;;;;;2.87;62.74;101806.06;4951715;28;98405;-72
2021/11/12 06:04:23;;;;;;;1999.90;999.90;;;;;;;2.88;63.34;101808.78;4970743;28;96913;-71
2021/11/12 06:06:51;;;;;;;1999.90;999.90;;;;;;;2.89;62.80;101805.34;4951304;28;98342;-71
2021/11/12 06:09:19;;;;;;;1999.90;999.90;;;;;;;2.91;63.02;101810.72;4968813;28;98674;-71
2021/11/12 06:11:47;;;;;;;1999.90;999.90;;;;;;;2.91;62.80;101800.22;4946205;28;99752;-71
2021/11/12 06:14:15;;;;;;;1999.90;999.90;;;;;;;2.88;62.88;101806.16;4969333;28;97379;-71
2021/11/12 06:16:45;;;;;;;1999.90;999.90;;;;;;;2.84;62.85;101806.75;4970567;28;97139;-72
2021/11/12 06:19:14;;;;;;;1999.90;999.90;;;;;;;2.81;62.99;101796.03;4968369;28;99291;-71
2021/11/12 06:21:41;;;;;;;1999.90;999.90;;;;;;;2.82;63.06;101800.47;4951647;28;98414;-72
2021/11/12 06:24:10;;;;;;;1999.90;999.90;;;;;;;2.81;63.34;101801.31;4952870;28;98180;-77
2021/11/12 06:26:38;;;;;;;1999.90;999.90;;;;;;;2.80;63.10;101798.56;4974131;28;96898;-78
2021/11/12 06:29:06;;;;;;;1999.90;999.90;;;;;;;2.78;63.27;101805.44;4953724;28;101428;-77
2021/11/12 06:31:34;;;;;;;1999.90;999.90;;;;;;;2.79;63.43;101809.88;4966103;28;97881;-79
2021/11/12 06:34:03;;;;;;;1999.90;999.90;;;;;;;2.80;62.73;101806.47;4962866;28;98487;-78
2021/11/12 06:36:31;;;;;;;1999.90;999.90;;;;;;;2.82;63.33;101807.47;4968027;28;97925;-78
2021/11/12 06:38:59;;;;;;;1999.90;999.90;;;;;;;2.82;63.10;101808.38;4954209;28;100689;-77
2021/11/12 06:41:39;;;;;;;1999.90;999.90;;;;;;;2.83;62.70;101810.22;4955945;28;98613;-73
2021/11/12 06:44:26;;;;;;;1999.90;999.90;;;;;;;2.85;63.30;101799.78;4969319;28;97423;-72
2021/11/12 06:49:52;;;;;;;1999.90;999.90;;;;;;;2.87;62.54;101803.44;4954028;28;97801;-71
2021/11/12 06:52:21;;;;;;;1999.90;999.90;;;;;;;2.85;62.92;101791.91;4967475;28;100130;-72
2021/11/12 06:54:49;;;;;;;1999.90;999.90;;;;;;;2.85;63.08;101790.19;4966632;28;98394;-72
2021/11/12 06:57:18;;;;;;;1999.90;999.90;;;;;;;2.86;63.19;101786.75;4951166;28;97853;-72
2021/11/12 06:59:46;;;;;;;1999.90;999.90;;;;;;;2.85;62.47;101779.69;4934382;28;97784;-72
2021/11/12 07:02:18;;;;;;;1999.90;999.90;;;;;;;2.85;62.39;101786.66;4969568;28;98265;-72
2021/11/12 07:04:48;;;;;;;1999.90;999.90;;;;;;;2.84;62.93;101784.81;4948615;28;97893;-72
2021/11/12 07:07:15;;;;;;;1999.90;999.90;;;;;;;2.85;62.88;101787.56;4931592;28;98431;-72
2021/11/12 07:09:46;;;;;;;1999.90;999.90;;;;;;;2.83;62.34;101783.91;4969914;28;98279;-71
2021/11/12 07:12:14;;;;;;;1999.90;999.90;;;;;;;2.83;63.09;101785.63;4950313;28;98810;-71
2021/11/12 07:14:43;;;;;;;1999.90;999.90;;;;;;;2.82;62.86;101791.72;4946742;28;97710;-70
2021/11/12 07:17:11;;;;;;;1999.90;999.90;;;;;;;2.83;62.47;101780.38;4971793;28;96838;-71
2021/11/12 07:19:39;;;;;;;1999.90;999.90;;;;;;;2.81;62.33;101784.59;4970057;28;99018;-71
2021/11/12 07:22:10;;;;;;;1999.90;999.90;;;;;;;2.78;62.69;101789.66;4952367;28;97873;-72
2021/11/12 07:24:38;;;;;;;1999.90;999.90;;;;;;;2.73;62.85;101775.31;4952331;28;96874;-71
2021/11/12 07:27:07;;;;;;;1999.90;999.90;;;;;;;2.67;62.98;101769.63;4971653;28;96879;-71
2021/11/12 07:29:36;;;;;;;1999.90;999.90;;;;;;;2.63;63.20;101771.13;4968245;28;99961;-71
2021/11/12 07:32:06;;;;;;;1999.90;999.90;;;;;;;2.61;62.53;101767.50;4967538;28;98993;-71
2021/11/12 07:34:36;;;;;;;1999.90;999.90;;;;;;;2.59;63.49;101773.44;4967547;28;97201;-71
2021/11/12 07:37:08;;;;;;;1999.90;999.90;;;;;;;2.58;62.92;101779.50;4966744;28;99059;-70
2021/11/12 07:39:48;;;;;;;1999.90;999.90;;;;;;;2.55;63.57;101777.56;4950997;28;97703;-71
2021/11/12 07:42:25;;;;;;;1999.90;999.90;;;;;;;2.56;63.55;101773.25;4970931;28;98915;-71
2021/11/12 07:45:06;;;;;;;1999.90;999.90;;;;;;;2.57;63.42;101775.03;4950059;28;97797;-72
2021/11/12 07:47:35;;;;;;;1999.90;999.90;;;;;;;2.56;62.92;101781.13;4969161;28;97461;-72
2021/11/12 07:50:07;;;;;;;1999.90;999.90;;;;;;;2.56;63.23;101773.25;4966524;28;98074;-71
2021/11/12 07:52:38;;;;;;;1999.90;999.90;;;;;;;2.57;63.05;101762.81;4966533;28;97496;-72
2021/11/12 07:55:09;;;;;;;1999.90;999.90;;;;;;;2.55;63.35;101766.13;4933365;28;97332;-70
2021/11/12 07:57:37;;;;;;;1999.90;999.90;;;;;;;2.51;63.00;101754.50;4965837;28;97352;-71
2021/11/12 08:00:07;;;;;;;1999.90;999.90;;;;;;;2.51;63.23;101751.88;4949696;28;99235;-72
2021/11/12 08:02:40;;;;;;;1999.90;999.90;;;;;;;2.44;63.87;101748.75;4967330;28;98810;-70
2021/11/12 08:05:14;;;;;;;1999.90;999.90;;;;;;;2.43;63.51;101742.59;4966312;28;97578;-71
2021/11/12 08:07:43;;;;;;;1999.90;999.90;;;;;;;2.45;63.66;101745.31;4950704;28;97377;-71
2021/11/12 08:10:16;;;;;;;1999.90;999.90;;;;;;;2.46;63.39;101744.50;4967212;28;97676;-70
2021/11/12 08:12:51;;;;;;;1999.90;999.90;;;;;;;2.48;63.25;101750.75;4948404;28;99724;-72
2021/11/12 08:15:37;;;;;;;1999.90;999.90;;;;;;;2.46;63.55;101744.50;4968879;28;97072;-73
2021/11/12 08:18:11;;;;;;;1999.90;999.90;;;;;;;2.44;63.22;101743.50;4964617;28;97536;-70
2021/11/12 08:20:42;;;;;;;1999.90;999.90;;;;;;;2.45;63.72;101747.94;4967813;28;97929;-71
2021/11/12 08:23:41;;;;;;;1999.90;999.90;;;;;;;2.43;63.54;101737.34;4966761;28;96916;-69
2021/11/12 08:26:13;;;;;;;1999.90;999.90;;;;;;;2.44;62.82;101748.75;4946841;28;98667;-69
2021/11/12 08:29:19;;;;;;;1999.90;999.90;;;;;;;2.42;63.27;101755.63;4965476;28;98919;-70
2021/11/12 08:32:06;;;;;;;1999.90;999.90;;;;;;;2.44;62.90;101741.78;4967116;28;98162;-70
2021/11/12 08:34:43;;;;;;;1999.90;999.90;;;;;;;2.44;63.38;101754.00;4964024;28;96899;-70
2021/11/12 08:37:17;;;;;;;1999.90;999.90;;;;;;;2.42;62.98;101739.88;4966689;28;97103;-71
2021/11/12 08:39:56;;;;;;;1999.90;999.90;;;;;;;2.36;63.19;101740.34;4944581;28;98328;-70
2021/11/12 08:42:29;;;;;;;1999.90;999.90;;;;;;;2.30;63.08;101723.25;4965240;28;98955;-70
2021/11/12 08:45:02;;;;;;;1999.90;999.90;;;;;;;2.25;63.05;101724.66;4964752;28;98868;-70
2021/11/12 08:47:33;;;;;;;1999.90;999.90;;;;;;;2.20;62.99;101724.31;4965175;28;97206;-72
2021/11/12 08:50:02;;;;;;;1999.90;999.90;;;;;;;2.17;63.29;101714.53;4947985;28;96950;-70
2021/11/12 08:52:30;;;;;;;1999.90;999.90;;;;;;;2.18;63.64;101713.72;4948194;28;100411;-69
2021/11/12 08:55:03;;;;;;;1999.90;999.90;;;;;;;2.22;63.57;101713.94;4968073;28;97085;-70
2021/11/12 08:57:32;;;;;;;1999.90;999.90;;;;;;;2.19;63.02;101712.91;4968059;28;97776;-72
2021/11/12 09:00:01;;;;;;;1999.90;999.90;;;;;;;2.15;62.81;101713.50;4946596;28;97814;-71
2021/11/12 09:02:29;;;;;;;1999.90;999.90;;;;;;;2.11;63.63;101711.47;4949671;28;98577;-70
2021/11/12 09:04:57;;;;;;;1999.90;999.90;;;;;;;2.12;62.89;101713.31;4961425;28;98186;-73
2021/11/12 09:07:30;;;;;;;1999.90;999.90;;;;;;;2.10;63.29;101698.25;4962582;28;96858;-72
2021/11/12 09:09:57;;;;;;;1999.90;999.90;;;;;;;2.07;63.05;101693.63;4964228;28;98064;-71
2021/11/12 09:12:27;;;;;;;1999.90;999.90;;;;;;;2.01;63.25;101687.06;4963269;28;97732;-71
2021/11/12 09:14:59;;;;;;;1999.90;999.90;;;;;;;1.98;63.79;101684.25;4965635;28;97872;-70
2021/11/12 09:17:29;;;;;;;1999.90;999.90;;;;;;;1.96;63.24;101678.84;4948333;28;97256;-72
2021/11/12 09:20:11;;;;;;;1999.90;999.90;;;;;;;1.96;64.01;101683.22;4962580;28;96957;-73
2021/11/12 09:22:39;;;;;;;1999.90;999.90;;;;;;;1.93;63.16;101676.03;4965997;28;98179;-72
2021/11/12 09:25:08;;;;;;;1999.90;999.90;;;;;;;1.92;63.58;101675.94;4965571;28;98135;-71
2021/11/12 09:27:37;;;;;;;1999.90;999.90;;;;;;;1.89;64.04;101671.34;4964715;28;97560;-73
2021/11/12 09:30:11;;;;;;;1999.90;999.90;;;;;;;1.82;63.27;101661.25;4948049;28;98145;-72
2021/11/12 09:32:39;;;;;;;1999.90;999.90;;;;;;;1.85;63.35;101664.06;4947669;28;98461;-69
2021/11/12 09:35:08;;;;;;;1999.90;999.90;;;;;;;1.83;63.63;101665.72;4931465;28;97773;-72
2021/11/12 09:37:36;;;;;;;1999.90;999.90;;;;;;;1.82;63.93;101669.13;4964880;28;97679;-71
2021/11/12 09:40:05;;;;;;;1999.90;999.90;;;;;;;1.81;64.02;101662.06;4964565;28;97306;-71
2021/11/12 09:42:35;;;;;;;1999.90;999.90;;;;;;;1.76;63.68;101658.19;4948301;28;99689;-70
2021/11/12 09:45:05;;;;;;;1999.90;999.90;;;;;;;1.71;63.46;101643.84;4965443;28;98895;-70
2021/11/12 09:47:34;;;;;;;1999.90;999.90;;;;;;;1.68;63.81;101627.91;4963904;28;98400;-70
2021/11/12 09:50:07;;;;;;;1999.90;999.90;;;;;;;1.66;63.67;101634.75;4966382;28;98482;-71
2021/11/12 09:52:35;;;;;;;1999.90;999.90;;;;;;;1.66;63.82;101640.00;4948915;28;98475;-70
2021/11/12 09:55:05;;;;;;;1999.90;999.90;;;;;;;1.65;63.50;101638.16;4949038;28;97110;-70
2021/11/12 09:57:33;;;;;;;1999.90;999.90;;;;;;;1.66;63.92;101629.50;4967140;28;97094;-70
2021/11/12 10:00:04;;;;;;;1999.90;999.90;;;;;;;1.68;63.60;101633.16;4969473;28;97939;-71
2021/11/12 10:02:42;;;;;;;1999.90;999.90;;;;;;;1.64;63.55;101640.66;4968958;28;97722;-71
2021/11/12 10:05:12;;;;;;;1999.90;999.90;;;;;;;1.65;63.42;101637.25;4936266;28;100398;-71
2021/11/12 10:07:40;;;;;;;1999.90;999.90;;;;;;;1.61;63.49;101633.53;4968712;28;97229;-71
2021/11/12 10:10:10;;;;;;;1999.90;999.90;;;;;;;1.56;63.49;101640.13;4967616;28;97058;-70
2021/11/12 10:12:40;;;;;;;1999.90;999.90;;;;;;;1.52;63.76;101632.88;4970231;28;97908;-71
2021/11/12 10:15:11;;;;;;;1999.90;999.90;;;;;;;1.49;63.12;101627.38;4965752;28;97537;-71
2021/11/12 10:17:41;;;;;;;1999.90;999.90;;;;;;;1.48;63.55;101625.59;4969151;28;97066;-72
2021/11/12 10:20:11;;;;;;;1999.90;999.90;;;;;;;1.45;63.80;101622.72;4952171;28;97396;-70
2021/11/12 10:22:42;;;;;;;1999.90;999.90;;;;;;;1.39;63.62;101606.56;4968763;28;98932;-72
2021/11/12 10:25:11;;;;;;;1999.90;999.90;;;;;;;1.34;63.74;101600.09;4950003;28;99650;-70
2021/11/12 10:27:43;;;;;;;1999.90;999.90;;;;;;;1.34;63.86;101596.56;4968414;28;96818;-71
2021/11/12 10:30:13;;;;;;;1999.90;999.90;;;;;;;1.36;63.33;101600.22;4952263;28;97468;-71
2021/11/12 10:32:44;;;;;;;1999.90;999.90;;;;;;;1.36;64.06;101600.22;4949719;28;99558;-69
2021/11/12 10:35:19;;;;;;;1999.90;999.90;;;;;;;1.36;63.65;101595.84;4969048;28;99564;-71
2021/11/12 10:37:47;;;;;;;1999.90;999.90;;;;;;;1.37;63.16;101591.53;4972945;28;96752;-70
2021/11/12 10:40:17;;;;;;;1999.90;999.90;;;;;;;1.36;63.16;101590.59;4946681;28;97675;-69
2021/11/12 10:42:47;;;;;;;1999.90;999.90;;;;;;;1.39;63.28;101588.22;4969002;28;98202;-70
2021/11/12 10:45:19;;;;;;;1999.90;999.90;;;;;;;1.39;62.92;101582.97;4951876;28;99165;-71
2021/11/12 10:47:50;;;;;;;1999.90;999.90;;;;;;;1.38;63.54;101578.50;4967537;28;99593;-71
2021/11/12 10:50:19;;;;;;;1999.90;999.90;;;;;;;1.38;63.19;101572.38;4938077;28;97700;-70
2021/11/12 10:52:51;;;;;;;1999.90;999.90;;;;;;;1.41;62.92;101568.28;4954094;28;97965;-71
2021/11/12 10:55:22;;;;;;;1999.90;999.90;;;;;;;1.38;62.93;101568.03;4972320;28;97223;-71
2021/11/12 10:57:53;;;;;;;1999.90;999.90;;;;;;;1.32;62.88;101565.00;4954449;28;97180;-71
2021/11/12 11:00:23;;;;;;;1999.90;999.90;;;;;;;1.34;62.90;101559.84;4954089;28;96843;-72
2021/11/12 11:02:55;;;;;;;1999.90;999.90;;;;;;;1.34;63.36;101568.66;4970648;28;98001;-71
2021/11/12 11:05:24;;;;;;;1999.90;999.90;;;;;;;1.34;63.40;101576.50;4944751;28;98585;-70
2021/11/12 11:07:53;;;;;;;1999.90;999.90;;;;;;;1.25;62.60;101573.25;4966952;28;97293;-71
2021/11/12 11:10:25;;;;;;;1999.90;999.90;;;;;;;1.18;63.03;101573.56;4962736;28;98536;-71
2021/11/12 11:12:54;;;;;;;1999.90;999.90;;;;;;;1.20;63.54;101587.72;4965834;28;97475;-72
2021/11/12 11:15:28;;;;;;;1999.90;999.90;;;;;;;1.23;62.98;101571.31;4967888;28;96807;-69
2021/11/12 11:18:25;;;;;;;1999.90;999.90;;;;;;;1.18;63.02;101563.09;4969892;28;97618;-73
2021/11/12 11:21:00;;;;;;;1999.90;999.90;;;;;;;1.15;63.03;101557.66;4966119;28;96870;-70
2021/11/12 11:23:31;;;;;;;1999.90;999.90;;;;;;;1.12;63.12;101541.72;4949005;28;101643;-69
2021/11/12 11:26:02;;;;;;;1999.90;999.90;;;;;;;1.06;63.11;101530.78;4948541;28;97682;-69
2021/11/12 11:28:32;;;;;;;1999.90;999.90;;;;;;;1.06;63.15;101541.28;4955950;28;98191;-69
2021/11/12 11:31:00;;;;;;;1999.90;999.90;;;;;;;1.08;63.26;101545.84;4950337;28;97250;-70
2021/11/12 11:33:30;;;;;;;1999.90;999.90;;;;;;;1.11;63.09;101542.50;4949723;28;100888;-72
2021/11/12 11:35:59;;;;;;;1999.90;999.90;;;;;;;1.17;62.66;101538.63;4967420;28;97664;-71
2021/11/12 11:38:29;;;;;;;1999.90;999.90;;;;;;;1.20;62.98;101535.28;4962507;28;97669;-71
2021/11/12 11:40:58;;;;;;;1999.90;999.90;;;;;;;1.23;63.27;101540.75;4951265;28;98643;-71
2021/11/12 11:43:26;;;;;;;1999.90;999.90;;;;;;;1.25;62.35;101551.34;4967303;28;97087;-71
2021/11/12 11:45:55;;;;;;;1999.90;999.90;;;;;;;1.28;63.22;101556.78;4950167;28;98396;-71
2021/11/12 11:48:23;;;;;;;1999.90;999.90;;;;;;;1.30;62.23;101547.34;4948858;28;97303;-71
2021/11/12 11:51:21;;;;;;;1999.90;999.90;;;;;;;1.33;62.56;101523.94;4963042;28;97131;-71
2021/11/12 11:53:50;;;;;;;1999.90;999.90;;;;;;;1.38;62.36;101512.97;4966704;28;98058;-69
2021/11/12 11:56:23;;;;;;;1999.90;999.90;;;;;;;1.40;62.84;101508.75;4963306;28;98126;-70
2021/11/12 11:58:52;;;;;;;1999.90;999.90;;;;;;;1.39;62.15;101511.25;4944342;28;96990;-69
2021/11/12 12:01:31;;;;;;;1999.90;999.90;;;;;;;1.37;62.18;101519.03;4961312;28;98356;-70
2021/11/12 12:04:33;;;;;;;1999.90;999.90;;;;;;;1.23;62.08;101511.94;4965906;28;97601;-70
2021/11/12 12:07:30;;;;;;;1999.90;999.90;;;;;;;1.21;63.04;101510.91;4966644;28;97979;-70
2021/11/12 12:10:02;;;;;;;1999.90;999.90;;;;;;;1.28;63.08;101501.75;4965643;28;96836;-71
2021/11/12 12:12:56;;;;;;;1999.90;999.90;;;;;;;1.31;62.61;101508.09;4964590;28;97774;-69
2021/11/12 12:15:44;;;;;;;1999.90;999.90;;;;;;;1.36;62.79;101514.56;4948070;28;98831;-70
2021/11/12 12:18:23;;;;;;;1999.90;999.90;;;;;;;1.38;62.02;101506.84;4966199;28;96979;-70
2021/11/12 12:21:45;;;;;;;1999.90;999.90;;;;;;;1.40;62.15;101507.84;4949101;28;98315;-71
2021/11/12 13:20:21;;;;;;;1999.90;999.90;;;;;;;1.60;62.21;101440.19;4962856;28;97918;-70
2021/11/12 13:22:57;;;;;;;1999.90;999.90;;;;;;;1.62;62.25;101438.59;4963794;28;97881;-69
2021/11/12 13:25:33;;;;;;;1999.90;999.90;;;;;;;1.61;61.57;101436.78;4962092;28;97867;-70
2021/11/12 13:28:23;;;;;;;1999.90;999.90;;;;;;;1.62;61.88;101438.59;4946659;28;98906;-71
2021/11/12 13:30:57;;;;;;;1999.90;999.90;;;;;;;1.65;61.92;101436.16;4963158;28;97678;-71
2021/11/12 13:33:32;;;;;;;1999.90;999.90;;;;;;;1.68;62.20;101435.47;4963557;28;97917;-72
2021/11/12 13:36:04;;;;;;;1999.90;999.90;;;;;;;1.70;61.71;101442.66;4946166;28;98057;-71
2021/11/12 13:38:37;;;;;;;1999.90;999.90;;;;;;;1.72;61.76;101433.16;4944084;28;97845;-72
2021/11/12 13:41:07;;;;;;;1999.90;999.90;;;;;;;1.75;61.27;101430.75;4962544;28;97336;-72
2021/11/12 13:43:38;;;;;;;1999.90;999.90;;;;;;;1.81;61.31;101435.50;4958961;28;98848;-71
2021/11/12 13:46:07;;;;;;;1999.90;999.90;;;;;;;1.80;61.27;101429.31;4945355;28;98146;-69
2021/11/12 13:48:43;;;;;;;1999.90;999.90;;;;;;;1.83;61.72;101434.78;4960271;28;98961;-72
2021/11/12 13:51:11;;;;;;;1999.90;999.90;;;;;;;1.82;61.79;101439.91;4962902;28;98318;-72
2021/11/12 13:53:39;;;;;;;1999.90;999.90;;;;;;;1.79;61.22;101435.41;4963687;28;97558;-70
2021/11/12 13:56:11;;;;;;;1999.90;999.90;;;;;;;1.76;61.28;101418.53;4966213;28;100616;-71
2021/11/12 13:58:40;;;;;;;1999.90;999.90;;;;;;;1.74;61.76;101418.44;4949677;28;97711;-71
2021/11/12 14:01:18;;;;;;;1999.90;999.90;;;;;;;1.76;61.81;101415.91;4967165;28;97046;-71
2021/11/12 14:03:46;;;;;;;1999.90;999.90;;;;;;;1.80;61.86;101403.09;4950601;28;96742;-69
2021/11/12 14:06:14;;;;;;;1999.90;999.90;;;;;;;1.82;61.31;101393.59;4951000;28;98640;-73
2021/11/12 14:08:44;;;;;;;1999.90;999.90;;;;;;;1.82;61.10;101385.72;4950321;28;98081;-71
2021/11/12 14:11:17;;;;;;;1999.90;999.90;;;;;;;1.82;61.78;101385.72;4968109;28;97667;-72
2021/11/12 14:13:47;;;;;;;1999.90;999.90;;;;;;;1.84;61.15;101386.75;4951949;28;96877;-72
2021/11/12 14:16:18;;;;;;;1999.90;999.90;;;;;;;1.81;61.29;101377.75;4950104;28;100780;-70
2021/11/12 14:21:49;;;;;;;1999.90;999.90;;;;;;;1.71;61.27;101392.00;4967986;28;96886;-71
2021/11/12 14:27:08;;;;;;;1999.90;999.90;;;;;;;1.67;61.62;101379.47;4958641;28;98235;-69
2021/11/12 14:35:21;;;;;;;1999.90;999.90;;;;;;;1.70;61.29;101369.19;4939775;28;97802;-71
2021/11/12 14:37:57;;;;;;;1999.90;999.90;;;;;;;1.68;61.54;101360.31;4948733;28;97105;-71
2021/11/12 14:40:35;;;;;;;1999.90;999.90;;;;;;;1.64;61.01;101353.06;4949176;28;99556;-71
2021/11/12 14:43:21;;;;;;;1999.90;999.90;;;;;;;1.58;61.35;101355.25;4968290;28;96925;-70
2021/11/12 14:46:10;;;;;;;1999.90;999.90;;;;;;;1.52;61.71;101354.88;4949486;28;96847;-71
2021/11/12 14:48:43;;;;;;;1999.90;999.90;;;;;;;1.54;61.47;101353.25;4967252;28;97675;-71